sensor_id;sensor_type;location;lat;lon;timestamp;P1;durP1;ratioP1;P2;durP2;ratioP2
46505;SDS011;32220;49.808;9.968;2023-02-28T00:01:49;7.83;;;4.43;;
46505;SDS011;32220;49.808;9.968;2023-02-28T00:04:16;5.10;;;4.00;;
46505;SDS011;32220;49.808;9.968;2023-02-28T00:06:44;5.10;;;4.27;;
46505;SDS011;32220;49.808;9.968;2023-02-28T00:09:11;5.20;;;4.17;;
46505;SDS011;32220;49.808;9.968;2023-02-28T00:11:41;4.10;;;3.70;;
46505;SDS011;32220;49.808;9.968;2023-02-28T00:14:09;5.60;;;4.10;;
46505;SDS011;32220;49.808;9.968;2023-02-28T00:16:36;6.00;;;4.00;;
46505;SDS011;32220;49.808;9.968;2023-02-28T00:19:04;6.03;;;4.10;;
46505;SDS011;32220;49.808;9.968;2023-02-28T00:21:32;4.90;;;4.40;;
46505;SDS011;32220;49.808;9.968;2023-02-28T00:23:59;4.93;;;4.20;;
46505;SDS011;32220;49.808;9.968;2023-02-28T00:26:27;6.97;;;4.37;;
46505;SDS011;32220;49.808;9.968;2023-02-28T00:28:56;5.83;;;4.43;;
46505;SDS011;32220;49.808;9.968;2023-02-28T00:31:24;4.53;;;3.53;;
46505;SDS011;32220;49.808;9.968;2023-02-28T00:33:52;4.60;;;4.03;;
46505;SDS011;32220;49.808;9.968;2023-02-28T00:36:20;4.50;;;3.80;;
46505;SDS011;32220;49.808;9.968;2023-02-28T00:38:48;5.53;;;4.63;;
46505;SDS011;32220;49.808;9.968;2023-02-28T00:41:16;5.80;;;4.20;;
46505;SDS011;32220;49.808;9.968;2023-02-28T00:43:44;5.07;;;4.00;;
46505;SDS011;32220;49.808;9.968;2023-02-28T00:46:13;6.13;;;4.37;;
46505;SDS011;32220;49.808;9.968;2023-02-28T00:48:41;5.17;;;4.40;;
46505;SDS011;32220;49.808;9.968;2023-02-28T00:51:09;5.40;;;4.30;;
46505;SDS011;32220;49.808;9.968;2023-02-28T00:53:37;5.47;;;4.30;;
46505;SDS011;32220;49.808;9.968;2023-02-28T00:56:05;4.70;;;4.10;;
46505;SDS011;32220;49.808;9.968;2023-02-28T00:58:32;6.47;;;4.00;;
46505;SDS011;32220;49.808;9.968;2023-02-28T01:01:00;4.73;;;4.00;;
46505;SDS011;32220;49.808;9.968;2023-02-28T01:03:29;4.90;;;4.13;;
46505;SDS011;32220;49.808;9.968;2023-02-28T01:05:58;4.43;;;4.03;;
46505;SDS011;32220;49.808;9.968;2023-02-28T01:08:25;4.70;;;3.93;;
46505;SDS011;32220;49.808;9.968;2023-02-28T01:10:53;6.57;;;4.57;;
46505;SDS011;32220;49.808;9.968;2023-02-28T01:13:21;6.17;;;4.70;;
46505;SDS011;32220;49.808;9.968;2023-02-28T01:15:51;6.00;;;4.53;;
46505;SDS011;32220;49.808;9.968;2023-02-28T01:18:22;4.60;;;4.20;;
46505;SDS011;32220;49.808;9.968;2023-02-28T01:20:51;5.70;;;4.70;;
46505;SDS011;32220;49.808;9.968;2023-02-28T01:23:20;6.33;;;4.23;;
46505;SDS011;32220;49.808;9.968;2023-02-28T01:25:49;5.30;;;4.80;;
46505;SDS011;32220;49.808;9.968;2023-02-28T01:28:17;4.67;;;4.23;;
46505;SDS011;32220;49.808;9.968;2023-02-28T01:30:47;6.60;;;4.57;;
46505;SDS011;32220;49.808;9.968;2023-02-28T01:33:15;5.10;;;4.53;;
46505;SDS011;32220;49.808;9.968;2023-02-28T01:35:42;5.20;;;4.67;;
46505;SDS011;32220;49.808;9.968;2023-02-28T01:38:12;5.10;;;4.20;;
46505;SDS011;32220;49.808;9.968;2023-02-28T01:40:39;7.67;;;4.90;;
46505;SDS011;32220;49.808;9.968;2023-02-28T01:43:10;5.43;;;4.50;;
46505;SDS011;32220;49.808;9.968;2023-02-28T01:45:48;6.90;;;4.87;;
46505;SDS011;32220;49.808;9.968;2023-02-28T01:48:15;4.93;;;4.17;;
46505;SDS011;32220;49.808;9.968;2023-02-28T01:50:45;6.07;;;4.47;;
46505;SDS011;32220;49.808;9.968;2023-02-28T01:53:16;5.23;;;4.70;;
46505;SDS011;32220;49.808;9.968;2023-02-28T01:55:47;5.67;;;4.57;;
46505;SDS011;32220;49.808;9.968;2023-02-28T01:58:19;5.37;;;4.73;;
46505;SDS011;32220;49.808;9.968;2023-02-28T02:00:47;5.57;;;5.00;;
46505;SDS011;32220;49.808;9.968;2023-02-28T02:03:16;5.23;;;4.73;;
46505;SDS011;32220;49.808;9.968;2023-02-28T02:05:47;5.93;;;5.33;;
46505;SDS011;32220;49.808;9.968;2023-02-28T02:08:17;4.60;;;4.20;;
46505;SDS011;32220;49.808;9.968;2023-02-28T02:10:48;5.03;;;4.53;;
46505;SDS011;32220;49.808;9.968;2023-02-28T02:13:24;7.53;;;4.60;;
46505;SDS011;32220;49.808;9.968;2023-02-28T02:16:02;7.37;;;4.87;;
46505;SDS011;32220;49.808;9.968;2023-02-28T02:18:36;5.67;;;4.80;;
46505;SDS011;32220;49.808;9.968;2023-02-28T02:21:22;5.07;;;4.30;;
46505;SDS011;32220;49.808;9.968;2023-02-28T02:27:12;6.13;;;4.83;;
46505;SDS011;32220;49.808;9.968;2023-02-28T02:33:18;5.33;;;4.47;;
46505;SDS011;32220;49.808;9.968;2023-02-28T02:35:58;6.30;;;4.77;;
46505;SDS011;32220;49.808;9.968;2023-02-28T02:38:33;5.50;;;4.80;;
46505;SDS011;32220;49.808;9.968;2023-02-28T02:41:10;5.93;;;4.93;;
46505;SDS011;32220;49.808;9.968;2023-02-28T02:43:44;6.13;;;4.67;;
46505;SDS011;32220;49.808;9.968;2023-02-28T02:46:16;5.63;;;4.50;;
46505;SDS011;32220;49.808;9.968;2023-02-28T02:48:47;6.30;;;5.13;;
46505;SDS011;32220;49.808;9.968;2023-02-28T02:51:18;6.53;;;4.90;;
46505;SDS011;32220;49.808;9.968;2023-02-28T02:53:50;6.73;;;4.80;;
46505;SDS011;32220;49.808;9.968;2023-02-28T02:56:24;5.60;;;4.73;;
46505;SDS011;32220;49.808;9.968;2023-02-28T02:58:58;6.77;;;4.50;;
46505;SDS011;32220;49.808;9.968;2023-02-28T03:01:30;7.17;;;5.27;;
46505;SDS011;32220;49.808;9.968;2023-02-28T03:04:00;6.17;;;5.10;;
46505;SDS011;32220;49.808;9.968;2023-02-28T03:06:32;6.53;;;4.63;;
46505;SDS011;32220;49.808;9.968;2023-02-28T03:09:01;6.47;;;4.67;;
46505;SDS011;32220;49.808;9.968;2023-02-28T03:11:30;7.43;;;5.90;;
46505;SDS011;32220;49.808;9.968;2023-02-28T03:14:09;6.33;;;4.93;;
46505;SDS011;32220;49.808;9.968;2023-02-28T03:16:59;6.87;;;4.70;;
46505;SDS011;32220;49.808;9.968;2023-02-28T03:19:42;5.93;;;5.33;;
46505;SDS011;32220;49.808;9.968;2023-02-28T03:25:29;4.67;;;4.10;;
46505;SDS011;32220;49.808;9.968;2023-02-28T03:28:05;5.33;;;4.53;;
46505;SDS011;32220;49.808;9.968;2023-02-28T03:30:41;5.60;;;4.53;;
46505;SDS011;32220;49.808;9.968;2023-02-28T03:33:20;6.03;;;4.10;;
46505;SDS011;32220;49.808;9.968;2023-02-28T03:35:52;6.40;;;4.77;;
46505;SDS011;32220;49.808;9.968;2023-02-28T03:38:24;8.50;;;5.23;;
46505;SDS011;32220;49.808;9.968;2023-02-28T03:40:58;7.10;;;5.00;;
46505;SDS011;32220;49.808;9.968;2023-02-28T03:43:31;6.00;;;5.10;;
46505;SDS011;32220;49.808;9.968;2023-02-28T03:46:08;6.93;;;5.17;;
46505;SDS011;32220;49.808;9.968;2023-02-28T03:48:40;7.03;;;5.23;;
46505;SDS011;32220;49.808;9.968;2023-02-28T03:51:15;5.87;;;4.90;;
46505;SDS011;32220;49.808;9.968;2023-02-28T03:53:47;6.17;;;5.00;;
46505;SDS011;32220;49.808;9.968;2023-02-28T03:56:20;7.33;;;5.20;;
46505;SDS011;32220;49.808;9.968;2023-02-28T03:58:53;6.03;;;5.00;;
46505;SDS011;32220;49.808;9.968;2023-02-28T04:01:26;5.93;;;5.03;;
46505;SDS011;32220;49.808;9.968;2023-02-28T04:03:57;6.80;;;5.87;;
46505;SDS011;32220;49.808;9.968;2023-02-28T04:06:26;6.83;;;5.20;;
46505;SDS011;32220;49.808;9.968;2023-02-28T04:08:55;6.60;;;5.30;;
46505;SDS011;32220;49.808;9.968;2023-02-28T04:11:23;5.53;;;4.60;;
46505;SDS011;32220;49.808;9.968;2023-02-28T04:13:57;8.37;;;5.67;;
46505;SDS011;32220;49.808;9.968;2023-02-28T04:16:25;7.90;;;5.23;;
46505;SDS011;32220;49.808;9.968;2023-02-28T04:18:53;6.63;;;5.27;;
46505;SDS011;32220;49.808;9.968;2023-02-28T04:21:28;5.80;;;4.93;;
46505;SDS011;32220;49.808;9.968;2023-02-28T04:23:57;6.37;;;5.60;;
46505;SDS011;32220;49.808;9.968;2023-02-28T04:26:28;6.53;;;5.43;;
46505;SDS011;32220;49.808;9.968;2023-02-28T04:28:57;7.80;;;5.33;;
46505;SDS011;32220;49.808;9.968;2023-02-28T04:31:25;6.70;;;5.23;;
46505;SDS011;32220;49.808;9.968;2023-02-28T04:33:52;6.07;;;4.67;;
46505;SDS011;32220;49.808;9.968;2023-02-28T04:36:20;5.73;;;4.90;;
46505;SDS011;32220;49.808;9.968;2023-02-28T04:38:49;9.10;;;5.67;;
46505;SDS011;32220;49.808;9.968;2023-02-28T04:41:19;7.27;;;5.70;;
46505;SDS011;32220;49.808;9.968;2023-02-28T04:43:48;7.47;;;4.87;;
46505;SDS011;32220;49.808;9.968;2023-02-28T04:46:16;6.47;;;5.40;;
46505;SDS011;32220;49.808;9.968;2023-02-28T04:48:44;5.90;;;5.30;;
46505;SDS011;32220;49.808;9.968;2023-02-28T04:51:13;6.90;;;4.93;;
46505;SDS011;32220;49.808;9.968;2023-02-28T04:53:42;6.27;;;4.77;;
46505;SDS011;32220;49.808;9.968;2023-02-28T04:56:11;5.87;;;5.17;;
46505;SDS011;32220;49.808;9.968;2023-02-28T04:58:41;7.27;;;5.20;;
46505;SDS011;32220;49.808;9.968;2023-02-28T05:01:17;6.27;;;5.47;;
46505;SDS011;32220;49.808;9.968;2023-02-28T05:03:47;7.27;;;5.13;;
46505;SDS011;32220;49.808;9.968;2023-02-28T05:06:15;5.40;;;4.70;;
46505;SDS011;32220;49.808;9.968;2023-02-28T05:08:43;5.47;;;4.97;;
46505;SDS011;32220;49.808;9.968;2023-02-28T05:11:13;6.13;;;5.00;;
46505;SDS011;32220;49.808;9.968;2023-02-28T05:13:45;6.27;;;4.30;;
46505;SDS011;32220;49.808;9.968;2023-02-28T05:16:13;5.47;;;4.77;;
46505;SDS011;32220;49.808;9.968;2023-02-28T05:18:41;5.03;;;4.23;;
46505;SDS011;32220;49.808;9.968;2023-02-28T05:21:19;6.97;;;5.40;;
46505;SDS011;32220;49.808;9.968;2023-02-28T05:23:51;5.33;;;4.53;;
46505;SDS011;32220;49.808;9.968;2023-02-28T05:26:20;5.60;;;4.70;;
46505;SDS011;32220;49.808;9.968;2023-02-28T05:28:49;6.17;;;5.10;;
46505;SDS011;32220;49.808;9.968;2023-02-28T05:31:17;5.70;;;4.73;;
46505;SDS011;32220;49.808;9.968;2023-02-28T05:33:45;4.93;;;4.43;;
46505;SDS011;32220;49.808;9.968;2023-02-28T05:36:13;7.63;;;4.80;;
46505;SDS011;32220;49.808;9.968;2023-02-28T05:38:41;5.83;;;4.37;;
46505;SDS011;32220;49.808;9.968;2023-02-28T05:41:10;6.93;;;4.50;;
46505;SDS011;32220;49.808;9.968;2023-02-28T05:43:39;6.17;;;4.77;;
46505;SDS011;32220;49.808;9.968;2023-02-28T05:46:09;5.20;;;4.30;;
46505;SDS011;32220;49.808;9.968;2023-02-28T05:48:38;6.37;;;4.73;;
46505;SDS011;32220;49.808;9.968;2023-02-28T05:51:07;4.57;;;3.97;;
46505;SDS011;32220;49.808;9.968;2023-02-28T05:53:36;6.40;;;4.47;;
46505;SDS011;32220;49.808;9.968;2023-02-28T05:56:04;5.20;;;4.03;;
46505;SDS011;32220;49.808;9.968;2023-02-28T05:58:32;5.23;;;4.50;;
46505;SDS011;32220;49.808;9.968;2023-02-28T06:01:18;5.07;;;3.97;;
46505;SDS011;32220;49.808;9.968;2023-02-28T06:03:49;5.37;;;4.13;;
46505;SDS011;32220;49.808;9.968;2023-02-28T06:06:17;5.33;;;4.40;;
46505;SDS011;32220;49.808;9.968;2023-02-28T06:08:45;5.47;;;4.13;;
46505;SDS011;32220;49.808;9.968;2023-02-28T06:11:13;5.27;;;4.23;;
46505;SDS011;32220;49.808;9.968;2023-02-28T06:13:41;5.80;;;4.20;;
46505;SDS011;32220;49.808;9.968;2023-02-28T06:16:09;5.37;;;4.03;;
46505;SDS011;32220;49.808;9.968;2023-02-28T06:18:39;5.87;;;4.70;;
46505;SDS011;32220;49.808;9.968;2023-02-28T06:21:07;5.63;;;4.23;;
46505;SDS011;32220;49.808;9.968;2023-02-28T06:23:35;6.73;;;4.70;;
46505;SDS011;32220;49.808;9.968;2023-02-28T06:26:03;6.87;;;4.20;;
46505;SDS011;32220;49.808;9.968;2023-02-28T06:28:32;5.43;;;4.10;;
46505;SDS011;32220;49.808;9.968;2023-02-28T06:31:04;4.73;;;4.20;;
46505;SDS011;32220;49.808;9.968;2023-02-28T06:33:33;5.70;;;4.60;;
46505;SDS011;32220;49.808;9.968;2023-02-28T06:36:04;5.60;;;4.07;;
46505;SDS011;32220;49.808;9.968;2023-02-28T06:38:33;6.40;;;4.60;;
46505;SDS011;32220;49.808;9.968;2023-02-28T06:41:01;4.43;;;4.00;;
46505;SDS011;32220;49.808;9.968;2023-02-28T06:43:31;6.03;;;4.40;;
46505;SDS011;32220;49.808;9.968;2023-02-28T06:46:00;7.40;;;4.60;;
46505;SDS011;32220;49.808;9.968;2023-02-28T06:48:29;4.87;;;4.10;;
46505;SDS011;32220;49.808;9.968;2023-02-28T06:51:01;7.03;;;3.83;;
46505;SDS011;32220;49.808;9.968;2023-02-28T06:53:33;5.27;;;4.77;;
46505;SDS011;32220;49.808;9.968;2023-02-28T06:56:03;8.30;;;4.40;;
46505;SDS011;32220;49.808;9.968;2023-02-28T06:58:32;5.07;;;4.37;;
46505;SDS011;32220;49.808;9.968;2023-02-28T07:01:01;4.83;;;4.33;;
46505;SDS011;32220;49.808;9.968;2023-02-28T07:03:29;6.30;;;4.37;;
46505;SDS011;32220;49.808;9.968;2023-02-28T07:05:57;5.80;;;4.97;;
46505;SDS011;32220;49.808;9.968;2023-02-28T07:08:26;6.97;;;4.43;;
46505;SDS011;32220;49.808;9.968;2023-02-28T07:10:54;6.40;;;4.40;;
46505;SDS011;32220;49.808;9.968;2023-02-28T07:13:23;4.93;;;3.83;;
46505;SDS011;32220;49.808;9.968;2023-02-28T07:15:54;7.17;;;4.63;;
46505;SDS011;32220;49.808;9.968;2023-02-28T07:18:23;5.70;;;4.50;;
46505;SDS011;32220;49.808;9.968;2023-02-28T07:20:51;5.53;;;4.47;;
46505;SDS011;32220;49.808;9.968;2023-02-28T07:23:19;9.87;;;4.90;;
46505;SDS011;32220;49.808;9.968;2023-02-28T07:25:49;6.23;;;4.63;;
46505;SDS011;32220;49.808;9.968;2023-02-28T07:28:18;5.77;;;4.43;;
46505;SDS011;32220;49.808;9.968;2023-02-28T07:30:45;6.53;;;4.13;;
46505;SDS011;32220;49.808;9.968;2023-02-28T07:33:13;5.40;;;4.47;;
46505;SDS011;32220;49.808;9.968;2023-02-28T07:35:41;6.50;;;4.77;;
46505;SDS011;32220;49.808;9.968;2023-02-28T07:38:09;5.83;;;4.93;;
46505;SDS011;32220;49.808;9.968;2023-02-28T07:40:39;5.90;;;4.33;;
46505;SDS011;32220;49.808;9.968;2023-02-28T07:43:09;7.83;;;5.00;;
46505;SDS011;32220;49.808;9.968;2023-02-28T07:45:37;7.30;;;4.67;;
46505;SDS011;32220;49.808;9.968;2023-02-28T07:48:04;7.67;;;4.87;;
46505;SDS011;32220;49.808;9.968;2023-02-28T07:50:35;5.90;;;4.57;;
46505;SDS011;32220;49.808;9.968;2023-02-28T07:53:03;6.07;;;5.30;;
46505;SDS011;32220;49.808;9.968;2023-02-28T07:55:31;7.93;;;5.03;;
46505;SDS011;32220;49.808;9.968;2023-02-28T07:57:58;8.93;;;5.23;;
46505;SDS011;32220;49.808;9.968;2023-02-28T08:00:28;7.43;;;5.60;;
46505;SDS011;32220;49.808;9.968;2023-02-28T08:02:57;7.27;;;5.47;;
46505;SDS011;32220;49.808;9.968;2023-02-28T08:05:25;7.10;;;6.00;;
46505;SDS011;32220;49.808;9.968;2023-02-28T08:07:52;5.23;;;4.53;;
46505;SDS011;32220;49.808;9.968;2023-02-28T08:10:20;7.33;;;5.67;;
46505;SDS011;32220;49.808;9.968;2023-02-28T08:12:48;5.90;;;5.27;;
46505;SDS011;32220;49.808;9.968;2023-02-28T08:15:15;10.03;;;5.90;;
46505;SDS011;32220;49.808;9.968;2023-02-28T08:17:44;9.30;;;6.33;;
46505;SDS011;32220;49.808;9.968;2023-02-28T08:20:12;7.30;;;5.53;;
46505;SDS011;32220;49.808;9.968;2023-02-28T08:22:40;6.90;;;6.20;;
46505;SDS011;32220;49.808;9.968;2023-02-28T08:25:08;7.03;;;5.17;;
46505;SDS011;32220;49.808;9.968;2023-02-28T08:27:36;6.83;;;5.50;;
46505;SDS011;32220;49.808;9.968;2023-02-28T08:30:05;6.03;;;5.43;;
46505;SDS011;32220;49.808;9.968;2023-02-28T08:32:33;6.97;;;5.07;;
46505;SDS011;32220;49.808;9.968;2023-02-28T08:35:03;7.00;;;5.50;;
46505;SDS011;32220;49.808;9.968;2023-02-28T08:37:31;6.33;;;5.70;;
46505;SDS011;32220;49.808;9.968;2023-02-28T08:39:59;5.97;;;5.40;;
46505;SDS011;32220;49.808;9.968;2023-02-28T08:42:26;6.37;;;5.77;;
46505;SDS011;32220;49.808;9.968;2023-02-28T08:44:54;7.87;;;6.37;;
46505;SDS011;32220;49.808;9.968;2023-02-28T08:47:22;7.70;;;5.87;;
46505;SDS011;32220;49.808;9.968;2023-02-28T08:49:50;6.40;;;5.57;;
46505;SDS011;32220;49.808;9.968;2023-02-28T08:52:19;6.73;;;5.80;;
46505;SDS011;32220;49.808;9.968;2023-02-28T08:54:47;6.97;;;6.17;;
46505;SDS011;32220;49.808;9.968;2023-02-28T08:57:15;6.83;;;6.07;;
46505;SDS011;32220;49.808;9.968;2023-02-28T08:59:44;6.87;;;6.20;;
46505;SDS011;32220;49.808;9.968;2023-02-28T09:02:12;8.03;;;6.07;;
46505;SDS011;32220;49.808;9.968;2023-02-28T09:04:40;6.17;;;5.57;;
46505;SDS011;32220;49.808;9.968;2023-02-28T09:07:11;6.80;;;5.53;;
46505;SDS011;32220;49.808;9.968;2023-02-28T09:09:40;6.53;;;5.93;;
46505;SDS011;32220;49.808;9.968;2023-02-28T09:12:19;7.17;;;6.10;;
46505;SDS011;32220;49.808;9.968;2023-02-28T09:14:47;7.33;;;5.70;;
46505;SDS011;32220;49.808;9.968;2023-02-28T09:17:15;7.43;;;6.00;;
46505;SDS011;32220;49.808;9.968;2023-02-28T09:19:43;7.33;;;5.63;;
46505;SDS011;32220;49.808;9.968;2023-02-28T09:22:11;8.17;;;6.47;;
46505;SDS011;32220;49.808;9.968;2023-02-28T09:24:39;7.23;;;6.40;;
46505;SDS011;32220;49.808;9.968;2023-02-28T09:27:08;6.43;;;5.73;;
46505;SDS011;32220;49.808;9.968;2023-02-28T09:29:36;6.77;;;6.07;;
46505;SDS011;32220;49.808;9.968;2023-02-28T09:32:04;6.17;;;5.30;;
46505;SDS011;32220;49.808;9.968;2023-02-28T09:34:32;5.93;;;5.43;;
46505;SDS011;32220;49.808;9.968;2023-02-28T09:37:02;6.33;;;5.53;;
46505;SDS011;32220;49.808;9.968;2023-02-28T09:39:30;6.00;;;5.40;;
46505;SDS011;32220;49.808;9.968;2023-02-28T09:41:59;6.53;;;5.93;;
46505;SDS011;32220;49.808;9.968;2023-02-28T09:44:30;6.23;;;5.70;;
46505;SDS011;32220;49.808;9.968;2023-02-28T09:47:05;5.67;;;5.17;;
46505;SDS011;32220;49.808;9.968;2023-02-28T09:49:39;7.23;;;6.07;;
46505;SDS011;32220;49.808;9.968;2023-02-28T09:52:10;6.70;;;5.73;;
46505;SDS011;32220;49.808;9.968;2023-02-28T09:54:41;6.90;;;5.60;;
46505;SDS011;32220;49.808;9.968;2023-02-28T09:57:19;8.00;;;6.40;;
46505;SDS011;32220;49.808;9.968;2023-02-28T10:00:03;6.07;;;5.47;;
46505;SDS011;32220;49.808;9.968;2023-02-28T10:02:50;7.17;;;6.10;;
46505;SDS011;32220;49.808;9.968;2023-02-28T10:05:27;6.87;;;5.37;;
46505;SDS011;32220;49.808;9.968;2023-02-28T10:08:00;5.80;;;5.30;;
46505;SDS011;32220;49.808;9.968;2023-02-28T10:10:35;5.50;;;5.00;;
46505;SDS011;32220;49.808;9.968;2023-02-28T10:13:11;6.20;;;5.60;;
46505;SDS011;32220;49.808;9.968;2023-02-28T10:15:43;6.37;;;5.77;;
46505;SDS011;32220;49.808;9.968;2023-02-28T10:18:15;6.00;;;5.30;;
46505;SDS011;32220;49.808;9.968;2023-02-28T10:20:48;6.67;;;5.93;;
46505;SDS011;32220;49.808;9.968;2023-02-28T10:23:19;6.07;;;5.57;;
46505;SDS011;32220;49.808;9.968;2023-02-28T10:25:50;6.50;;;5.90;;
46505;SDS011;32220;49.808;9.968;2023-02-28T10:28:24;6.17;;;5.57;;
46505;SDS011;32220;49.808;9.968;2023-02-28T10:30:53;6.60;;;5.37;;
46505;SDS011;32220;49.808;9.968;2023-02-28T10:33:23;6.03;;;5.53;;
46505;SDS011;32220;49.808;9.968;2023-02-28T10:35:52;6.00;;;5.30;;
46505;SDS011;32220;49.808;9.968;2023-02-28T10:38:21;6.60;;;5.87;;
46505;SDS011;32220;49.808;9.968;2023-02-28T10:40:50;6.27;;;5.73;;
46505;SDS011;32220;49.808;9.968;2023-02-28T10:43:19;6.43;;;5.90;;
46505;SDS011;32220;49.808;9.968;2023-02-28T10:45:55;6.80;;;6.10;;
46505;SDS011;32220;49.808;9.968;2023-02-28T10:48:36;6.53;;;5.93;;
46505;SDS011;32220;49.808;9.968;2023-02-28T10:51:07;6.67;;;5.97;;
46505;SDS011;32220;49.808;9.968;2023-02-28T10:53:37;6.30;;;5.70;;
46505;SDS011;32220;49.808;9.968;2023-02-28T10:56:15;6.13;;;5.57;;
46505;SDS011;32220;49.808;9.968;2023-02-28T10:58:49;6.50;;;5.90;;
46505;SDS011;32220;49.808;9.968;2023-02-28T11:01:21;6.87;;;5.97;;
46505;SDS011;32220;49.808;9.968;2023-02-28T11:03:51;9.60;;;6.37;;
46505;SDS011;32220;49.808;9.968;2023-02-28T11:06:20;7.10;;;6.40;;
46505;SDS011;32220;49.808;9.968;2023-02-28T11:08:50;6.77;;;6.17;;
46505;SDS011;32220;49.808;9.968;2023-02-28T11:11:21;8.87;;;6.53;;
46505;SDS011;32220;49.808;9.968;2023-02-28T11:13:51;7.13;;;5.93;;
46505;SDS011;32220;49.808;9.968;2023-02-28T11:16:23;7.30;;;5.97;;
46505;SDS011;32220;49.808;9.968;2023-02-28T11:18:59;9.47;;;6.07;;
46505;SDS011;32220;49.808;9.968;2023-02-28T11:21:27;6.73;;;6.13;;
46505;SDS011;32220;49.808;9.968;2023-02-28T11:24:00;7.10;;;6.30;;
46505;SDS011;32220;49.808;9.968;2023-02-28T11:26:37;6.53;;;5.93;;
46505;SDS011;32220;49.808;9.968;2023-02-28T11:29:12;7.33;;;6.10;;
46505;SDS011;32220;49.808;9.968;2023-02-28T11:31:59;7.27;;;6.57;;
46505;SDS011;32220;49.808;9.968;2023-02-28T11:34:46;8.70;;;7.07;;
46505;SDS011;32220;49.808;9.968;2023-02-28T11:37:27;8.00;;;7.20;;
46505;SDS011;32220;49.808;9.968;2023-02-28T11:39:56;8.40;;;7.53;;
46505;SDS011;32220;49.808;9.968;2023-02-28T11:42:30;8.47;;;7.30;;
46505;SDS011;32220;49.808;9.968;2023-02-28T11:45:19;7.80;;;6.97;;
46505;SDS011;32220;49.808;9.968;2023-02-28T11:47:58;7.53;;;6.27;;
46505;SDS011;32220;49.808;9.968;2023-02-28T11:50:42;7.03;;;6.33;;
46505;SDS011;32220;49.808;9.968;2023-02-28T11:53:19;6.43;;;5.73;;
46505;SDS011;32220;49.808;9.968;2023-02-28T11:55:56;7.27;;;6.50;;
46505;SDS011;32220;49.808;9.968;2023-02-28T11:58:34;7.07;;;5.87;;
46505;SDS011;32220;49.808;9.968;2023-02-28T12:04:03;6.70;;;6.00;;
46505;SDS011;32220;49.808;9.968;2023-02-28T12:06:40;7.30;;;6.60;;
46505;SDS011;32220;49.808;9.968;2023-02-28T12:09:20;7.47;;;6.43;;
46505;SDS011;32220;49.808;9.968;2023-02-28T12:12:04;6.77;;;6.07;;
46505;SDS011;32220;49.808;9.968;2023-02-28T12:17:43;5.83;;;5.30;;
46505;SDS011;32220;49.808;9.968;2023-02-28T12:20:25;6.53;;;5.93;;
46505;SDS011;32220;49.808;9.968;2023-02-28T12:23:06;8.27;;;5.90;;
46505;SDS011;32220;49.808;9.968;2023-02-28T12:25:50;6.60;;;6.00;;
46505;SDS011;32220;49.808;9.968;2023-02-28T12:28:28;6.17;;;5.60;;
46505;SDS011;32220;49.808;9.968;2023-02-28T12:31:02;6.07;;;5.43;;
46505;SDS011;32220;49.808;9.968;2023-02-28T12:33:34;6.97;;;6.17;;
46505;SDS011;32220;49.808;9.968;2023-02-28T12:36:10;5.83;;;5.33;;
46505;SDS011;32220;49.808;9.968;2023-02-28T12:38:44;6.53;;;6.00;;
46505;SDS011;32220;49.808;9.968;2023-02-28T12:41:16;6.30;;;5.70;;
46505;SDS011;32220;49.808;9.968;2023-02-28T12:43:48;6.47;;;5.87;;
46505;SDS011;32220;49.808;9.968;2023-02-28T12:46:21;6.43;;;5.83;;
46505;SDS011;32220;49.808;9.968;2023-02-28T12:48:53;7.20;;;6.60;;
46505;SDS011;32220;49.808;9.968;2023-02-28T12:51:25;7.03;;;6.40;;
46505;SDS011;32220;49.808;9.968;2023-02-28T12:53:56;7.30;;;6.70;;
46505;SDS011;32220;49.808;9.968;2023-02-28T12:56:35;6.53;;;5.90;;
46505;SDS011;32220;49.808;9.968;2023-02-28T12:59:10;7.37;;;6.17;;
46505;SDS011;32220;49.808;9.968;2023-02-28T13:01:51;6.53;;;5.80;;
46505;SDS011;32220;49.808;9.968;2023-02-28T13:04:41;6.97;;;6.17;;
46505;SDS011;32220;49.808;9.968;2023-02-28T13:10:13;6.70;;;6.07;;
46505;SDS011;32220;49.808;9.968;2023-02-28T13:12:47;7.07;;;6.37;;
46505;SDS011;32220;49.808;9.968;2023-02-28T13:15:17;7.73;;;7.03;;
46505;SDS011;32220;49.808;9.968;2023-02-28T13:17:50;8.20;;;7.33;;
46505;SDS011;32220;49.808;9.968;2023-02-28T13:20:20;7.70;;;6.90;;
46505;SDS011;32220;49.808;9.968;2023-02-28T13:22:52;7.13;;;6.43;;
46505;SDS011;32220;49.808;9.968;2023-02-28T13:31:41;6.07;;;5.57;;
46505;SDS011;32220;49.808;9.968;2023-02-28T13:35:11;8.10;;;7.30;;
46505;SDS011;32220;49.808;9.968;2023-02-28T13:38:12;7.13;;;6.43;;
46505;SDS011;32220;49.808;9.968;2023-02-28T13:40:44;7.20;;;6.50;;
46505;SDS011;32220;49.808;9.968;2023-02-28T13:43:12;7.53;;;6.80;;
46505;SDS011;32220;49.808;9.968;2023-02-28T13:48:35;7.47;;;6.70;;
46505;SDS011;32220;49.808;9.968;2023-02-28T13:51:27;7.03;;;6.00;;
46505;SDS011;32220;49.808;9.968;2023-02-28T13:54:13;7.33;;;6.63;;
46505;SDS011;32220;49.808;9.968;2023-02-28T13:57:04;7.57;;;6.77;;
46505;SDS011;32220;49.808;9.968;2023-02-28T13:59:48;8.10;;;6.50;;
46505;SDS011;32220;49.808;9.968;2023-02-28T14:02:33;7.27;;;6.57;;
46505;SDS011;32220;49.808;9.968;2023-02-28T14:05:13;8.23;;;7.17;;
46505;SDS011;32220;49.808;9.968;2023-02-28T14:07:43;7.67;;;6.97;;
46505;SDS011;32220;49.808;9.968;2023-02-28T14:10:24;7.27;;;6.53;;
46505;SDS011;32220;49.808;9.968;2023-02-28T14:13:03;6.87;;;6.27;;
46505;SDS011;32220;49.808;9.968;2023-02-28T14:15:56;6.50;;;5.90;;
46505;SDS011;32220;49.808;9.968;2023-02-28T14:18:26;7.33;;;6.43;;
46505;SDS011;32220;49.808;9.968;2023-02-28T14:20:58;7.80;;;7.00;;
46505;SDS011;32220;49.808;9.968;2023-02-28T14:23:47;8.20;;;6.70;;
46505;SDS011;32220;49.808;9.968;2023-02-28T14:26:53;7.23;;;6.63;;
46505;SDS011;32220;49.808;9.968;2023-02-28T14:32:26;8.17;;;6.93;;
46505;SDS011;32220;49.808;9.968;2023-02-28T14:35:02;7.07;;;6.37;;
46505;SDS011;32220;49.808;9.968;2023-02-28T14:37:39;9.30;;;6.93;;
46505;SDS011;32220;49.808;9.968;2023-02-28T14:40:14;8.40;;;7.50;;
46505;SDS011;32220;49.808;9.968;2023-02-28T14:42:48;7.87;;;6.47;;
46505;SDS011;32220;49.808;9.968;2023-02-28T14:45:22;7.53;;;6.80;;
46505;SDS011;32220;49.808;9.968;2023-02-28T14:47:51;8.30;;;6.47;;
46505;SDS011;32220;49.808;9.968;2023-02-28T14:50:20;7.53;;;6.83;;
46505;SDS011;32220;49.808;9.968;2023-02-28T14:52:51;7.80;;;6.97;;
46505;SDS011;32220;49.808;9.968;2023-02-28T14:55:23;7.60;;;6.63;;
46505;SDS011;32220;49.808;9.968;2023-02-28T14:57:55;8.63;;;7.37;;
46505;SDS011;32220;49.808;9.968;2023-02-28T15:00:25;7.90;;;7.10;;
46505;SDS011;32220;49.808;9.968;2023-02-28T15:02:54;8.03;;;7.17;;
46505;SDS011;32220;49.808;9.968;2023-02-28T15:05:25;7.43;;;6.63;;
46505;SDS011;32220;49.808;9.968;2023-02-28T15:08:03;7.87;;;6.87;;
46505;SDS011;32220;49.808;9.968;2023-02-28T15:10:33;7.87;;;7.07;;
46505;SDS011;32220;49.808;9.968;2023-02-28T15:13:04;9.23;;;6.87;;
46505;SDS011;32220;49.808;9.968;2023-02-28T15:15:37;7.90;;;6.87;;
46505;SDS011;32220;49.808;9.968;2023-02-28T15:18:11;7.67;;;6.77;;
46505;SDS011;32220;49.808;9.968;2023-02-28T15:20:48;7.40;;;6.70;;
46505;SDS011;32220;49.808;9.968;2023-02-28T15:23:18;7.77;;;6.13;;
46505;SDS011;32220;49.808;9.968;2023-02-28T15:25:48;8.53;;;6.97;;
46505;SDS011;32220;49.808;9.968;2023-02-28T15:28:20;9.30;;;6.63;;
46505;SDS011;32220;49.808;9.968;2023-02-28T15:30:52;7.87;;;6.67;;
46505;SDS011;32220;49.808;9.968;2023-02-28T15:33:22;6.83;;;6.23;;
46505;SDS011;32220;49.808;9.968;2023-02-28T15:36:03;9.17;;;7.07;;
46505;SDS011;32220;49.808;9.968;2023-02-28T15:38:33;8.93;;;6.93;;
46505;SDS011;32220;49.808;9.968;2023-02-28T15:41:03;7.77;;;6.90;;
46505;SDS011;32220;49.808;9.968;2023-02-28T15:43:36;8.50;;;6.80;;
46505;SDS011;32220;49.808;9.968;2023-02-28T15:46:06;9.23;;;7.47;;
46505;SDS011;32220;49.808;9.968;2023-02-28T15:48:35;8.93;;;7.13;;